DNO069 LGMK-LGAV
Flight info
| Callsign | DNO069 |
|---|---|
| Flight time | 0h 39m |
| Altitude | 8000 |
| Route | VARIX |
| Aircraft | C208/L-SDFGR/C |
Departure
| Time | 2026-05-04 13:20 |
|---|---|
| Airport | Mykonos Island National Airport (LGMK) |
Arrival
| Time | 2026-05-04 14:00 |
|---|---|
| Airport | Athens Eleftherios Venizelos International Airport (LGAV) |
| Time | Latitude | Longitude | Altitude | Speed | Heading |
|---|---|---|---|---|---|
| 2026-05-04 12:39 | 37.43614 | 25.34591 | 405 ft | 0 kts | 251° |
| 2026-05-04 12:39 | 37.43615 | 25.34592 | 405 ft | 0 kts | 251° |
| 2026-05-04 13:10 | 37.43615 | 25.34591 | 433 ft | 0 kts | 257° |
| 2026-05-04 13:10 | 37.43618 | 25.34587 | 433 ft | 1 kts | 356° |
| 2026-05-04 13:10 | 37.43621 | 25.34592 | 405 ft | 1 kts | 72° |
| 2026-05-04 13:11 | 37.43621 | 25.34597 | 405 ft | 1 kts | 86° |
| 2026-05-04 13:11 | 37.43621 | 25.34602 | 405 ft | 1 kts | 90° |
| 2026-05-04 13:11 | 37.43622 | 25.34637 | 406 ft | 7 kts | 92° |
| 2026-05-04 13:11 | 37.43579 | 25.34678 | 406 ft | 8 kts | 155° |
| 2026-05-04 13:12 | 37.43526 | 25.34702 | 406 ft | 7 kts | 163° |
| 2026-05-04 13:12 | 37.43523 | 25.34704 | 406 ft | 0 kts | 163° |
| 2026-05-04 13:12 | 37.43501 | 25.34713 | 406 ft | 7 kts | 160° |
| 2026-05-04 13:12 | 37.43482 | 25.34721 | 406 ft | 0 kts | 160° |
| 2026-05-04 13:13 | 37.43475 | 25.34724 | 406 ft | 0 kts | 160° |
| 2026-05-04 13:15 | 37.43473 | 25.34725 | 406 ft | 3 kts | 162° |
| 2026-05-04 13:16 | 37.43460 | 25.34731 | 406 ft | 2 kts | 161° |
| 2026-05-04 13:16 | 37.43438 | 25.34741 | 406 ft | 0 kts | 161° |
| 2026-05-04 13:17 | 37.43435 | 25.34742 | 406 ft | 2 kts | 160° |
| 2026-05-04 13:17 | 37.43429 | 25.34748 | 406 ft | 1 kts | 130° |
| 2026-05-04 13:17 | 37.43427 | 25.34751 | 406 ft | 1 kts | 124° |
| 2026-05-04 13:18 | 37.43407 | 25.34812 | 409 ft | 14 kts | 115° |
| 2026-05-04 13:18 | 37.43317 | 25.34909 | 411 ft | 22 kts | 160° |
| 2026-05-04 13:18 | 37.43142 | 25.34986 | 411 ft | 31 kts | 161° |
| 2026-05-04 13:18 | 37.42912 | 25.35089 | 411 ft | 39 kts | 160° |
| 2026-05-04 13:19 | 37.42726 | 25.35172 | 408 ft | 1 kts | 188° |
| 2026-05-04 13:19 | 37.42724 | 25.35171 | 408 ft | 2 kts | 210° |
| 2026-05-04 13:19 | 37.42757 | 25.35158 | 409 ft | 10 kts | 340° |
| 2026-05-04 13:19 | 37.42901 | 25.35094 | 411 ft | 39 kts | 340° |
| 2026-05-04 13:20 | 37.43276 | 25.34925 | 448 ft | 69 kts | 344° |
| 2026-05-04 13:20 | 37.43743 | 25.34761 | 668 ft | 67 kts | 342° |
| 2026-05-04 13:20 | 37.44186 | 25.34555 | 839 ft | 73 kts | 339° |
| 2026-05-04 13:20 | 37.44649 | 25.34238 | 1103 ft | 79 kts | 328° |
| 2026-05-04 13:21 | 37.45089 | 25.33824 | 1405 ft | 79 kts | 325° |
| 2026-05-04 13:21 | 37.45525 | 25.33391 | 1728 ft | 82 kts | 328° |
| 2026-05-04 13:21 | 37.45989 | 25.32966 | 2050 ft | 82 kts | 324° |
| 2026-05-04 13:21 | 37.46309 | 25.32333 | 2272 ft | 93 kts | 292° |
| 2026-05-04 13:22 | 37.46487 | 25.31549 | 2500 ft | 94 kts | 295° |
| 2026-05-04 13:22 | 37.46687 | 25.30739 | 2677 ft | 99 kts | 293° |
| 2026-05-04 13:22 | 37.46772 | 25.29870 | 2923 ft | 105 kts | 271° |
| 2026-05-04 13:22 | 37.46498 | 25.28987 | 3165 ft | 118 kts | 229° |
| 2026-05-04 13:23 | 37.45842 | 25.28361 | 3446 ft | 115 kts | 222° |
| 2026-05-04 13:23 | 37.45206 | 25.27806 | 3748 ft | 111 kts | 221° |
| 2026-05-04 13:23 | 37.44908 | 25.27046 | 3962 ft | 94 kts | 286° |
| 2026-05-04 13:23 | 37.44812 | 25.26220 | 4222 ft | 103 kts | 252° |
| 2026-05-04 13:24 | 37.44533 | 25.25411 | 4477 ft | 99 kts | 257° |
| 2026-05-04 13:24 | 37.44260 | 25.24617 | 4737 ft | 99 kts | 256° |
| 2026-05-04 13:24 | 37.44074 | 25.24098 | 4904 ft | 98 kts | 256° |
| 2026-05-04 13:25 | 37.43518 | 25.22588 | 5397 ft | 93 kts | 258° |
| 2026-05-04 13:25 | 37.43251 | 25.21829 | 5654 ft | 97 kts | 257° |
| 2026-05-04 13:25 | 37.42971 | 25.21065 | 5909 ft | 95 kts | 257° |
| 2026-05-04 13:25 | 37.42695 | 25.20325 | 6165 ft | 93 kts | 258° |
| 2026-05-04 13:26 | 37.42418 | 25.19584 | 6427 ft | 94 kts | 258° |
| 2026-05-04 13:26 | 37.42143 | 25.18853 | 6670 ft | 91 kts | 259° |
| 2026-05-04 13:26 | 37.41876 | 25.18147 | 6897 ft | 88 kts | 259° |
| 2026-05-04 13:26 | 37.41618 | 25.17460 | 7103 ft | 88 kts | 259° |
| 2026-05-04 13:27 | 37.41354 | 25.16742 | 7251 ft | 93 kts | 258° |
| 2026-05-04 13:27 | 37.41075 | 25.15986 | 7417 ft | 98 kts | 257° |
| 2026-05-04 13:27 | 37.40777 | 25.15184 | 7600 ft | 104 kts | 257° |
| 2026-05-04 13:27 | 37.40461 | 25.14337 | 7777 ft | 110 kts | 256° |
| 2026-05-04 13:28 | 37.40129 | 25.13444 | 7968 ft | 115 kts | 256° |
| 2026-05-04 13:28 | 37.39770 | 25.12474 | 8012 ft | 132 kts | 255° |
| 2026-05-04 13:28 | 37.39360 | 25.11368 | 8018 ft | 147 kts | 253° |
| 2026-05-04 13:28 | 37.38913 | 25.10173 | 8011 ft | 155 kts | 253° |
| 2026-05-04 13:29 | 37.38443 | 25.08925 | 8010 ft | 161 kts | 252° |
| 2026-05-04 13:29 | 37.37958 | 25.07637 | 8008 ft | 165 kts | 252° |
| 2026-05-04 13:29 | 37.37466 | 25.06331 | 8007 ft | 166 kts | 252° |
| 2026-05-04 13:29 | 37.36973 | 25.05017 | 8011 ft | 167 kts | 252° |
| 2026-05-04 13:30 | 37.36527 | 25.03685 | 7994 ft | 162 kts | 265° |
| 2026-05-04 13:30 | 37.36646 | 25.02351 | 7996 ft | 152 kts | 294° |
| 2026-05-04 13:30 | 37.36994 | 25.01095 | 8001 ft | 152 kts | 293° |
| 2026-05-04 13:30 | 37.37329 | 24.99834 | 7995 ft | 152 kts | 293° |
| 2026-05-04 13:31 | 37.37664 | 24.98571 | 7998 ft | 152 kts | 293° |
| 2026-05-04 13:31 | 37.38002 | 24.97304 | 7997 ft | 153 kts | 293° |
| 2026-05-04 13:31 | 37.38338 | 24.96037 | 7999 ft | 153 kts | 293° |
| 2026-05-04 13:31 | 37.38676 | 24.94769 | 7997 ft | 153 kts | 293° |
| 2026-05-04 13:32 | 37.39009 | 24.93514 | 7998 ft | 153 kts | 293° |
| 2026-05-04 13:32 | 37.39345 | 24.92244 | 7997 ft | 153 kts | 293° |
| 2026-05-04 13:32 | 37.39686 | 24.90962 | 7995 ft | 152 kts | 293° |
| 2026-05-04 13:32 | 37.40022 | 24.89697 | 7999 ft | 153 kts | 293° |
| 2026-05-04 13:33 | 37.40355 | 24.88445 | 7997 ft | 153 kts | 293° |
| 2026-05-04 13:33 | 37.40691 | 24.87176 | 7994 ft | 153 kts | 293° |
| 2026-05-04 13:33 | 37.41029 | 24.85898 | 7998 ft | 155 kts | 293° |
| 2026-05-04 13:33 | 37.41368 | 24.84612 | 7994 ft | 155 kts | 293° |
| 2026-05-04 13:34 | 37.41712 | 24.83313 | 7996 ft | 154 kts | 293° |
| 2026-05-04 13:34 | 37.42044 | 24.82056 | 7996 ft | 153 kts | 293° |
| 2026-05-04 13:34 | 37.42380 | 24.80786 | 7993 ft | 153 kts | 293° |
| 2026-05-04 13:34 | 37.42715 | 24.79520 | 7994 ft | 152 kts | 293° |
| 2026-05-04 13:35 | 37.43048 | 24.78256 | 7991 ft | 152 kts | 293° |
| 2026-05-04 13:35 | 37.43715 | 24.75730 | 7985 ft | 152 kts | 293° |
| 2026-05-04 13:35 | 37.44050 | 24.74462 | 7986 ft | 152 kts | 293° |
| 2026-05-04 13:36 | 37.44383 | 24.73195 | 7987 ft | 153 kts | 293° |
| 2026-05-04 13:36 | 37.44718 | 24.71926 | 7986 ft | 153 kts | 293° |
| 2026-05-04 13:36 | 37.45052 | 24.70656 | 7980 ft | 153 kts | 293° |
| 2026-05-04 13:36 | 37.45386 | 24.69389 | 7982 ft | 152 kts | 293° |
| 2026-05-04 13:37 | 37.45727 | 24.68127 | 7982 ft | 152 kts | 294° |
| 2026-05-04 13:37 | 37.46067 | 24.66866 | 7981 ft | 152 kts | 293° |
| 2026-05-04 13:37 | 37.46400 | 24.65598 | 7980 ft | 152 kts | 293° |
| 2026-05-04 13:37 | 37.46731 | 24.64334 | 7980 ft | 153 kts | 293° |
| 2026-05-04 13:38 | 37.47064 | 24.63064 | 7987 ft | 153 kts | 293° |
| 2026-05-04 13:38 | 37.47397 | 24.61795 | 7986 ft | 153 kts | 293° |
| 2026-05-04 13:38 | 37.47730 | 24.60525 | 7980 ft | 153 kts | 293° |
| 2026-05-04 13:38 | 37.48063 | 24.59253 | 7980 ft | 153 kts | 293° |
| 2026-05-04 13:39 | 37.48397 | 24.57981 | 7982 ft | 153 kts | 293° |
| 2026-05-04 13:39 | 37.48729 | 24.56709 | 7982 ft | 153 kts | 293° |
| 2026-05-04 13:39 | 37.49066 | 24.55442 | 7983 ft | 152 kts | 294° |
| 2026-05-04 13:39 | 37.49440 | 24.54217 | 7982 ft | 152 kts | 295° |
| 2026-05-04 13:40 | 37.49809 | 24.52970 | 7977 ft | 152 kts | 295° |
| 2026-05-04 13:40 | 37.50176 | 24.51723 | 7979 ft | 152 kts | 295° |
| 2026-05-04 13:40 | 37.50544 | 24.50477 | 7980 ft | 152 kts | 295° |
| 2026-05-04 13:40 | 37.50912 | 24.49232 | 7977 ft | 152 kts | 295° |
| 2026-05-04 13:41 | 37.51279 | 24.47987 | 7984 ft | 152 kts | 295° |
| 2026-05-04 13:41 | 37.51645 | 24.46739 | 7986 ft | 152 kts | 295° |
| 2026-05-04 13:41 | 37.52009 | 24.45496 | 7983 ft | 151 kts | 295° |
| 2026-05-04 13:42 | 37.52740 | 24.43009 | 7981 ft | 151 kts | 295° |
| 2026-05-04 13:42 | 37.53105 | 24.41766 | 7982 ft | 151 kts | 295° |
| 2026-05-04 13:42 | 37.53469 | 24.40527 | 7983 ft | 151 kts | 295° |
| 2026-05-04 13:42 | 37.53832 | 24.39289 | 7983 ft | 151 kts | 295° |
| 2026-05-04 13:43 | 37.54192 | 24.38051 | 7991 ft | 150 kts | 295° |
| 2026-05-04 13:43 | 37.54548 | 24.36810 | 7989 ft | 151 kts | 295° |
| 2026-05-04 13:43 | 37.54906 | 24.35563 | 7989 ft | 152 kts | 295° |
| 2026-05-04 13:43 | 37.55266 | 24.34314 | 7835 ft | 148 kts | 295° |
| 2026-05-04 13:44 | 37.55608 | 24.33105 | 7627 ft | 145 kts | 295° |
| 2026-05-04 13:44 | 37.55892 | 24.31891 | 7421 ft | 144 kts | 289° |
| 2026-05-04 13:44 | 37.56114 | 24.30670 | 7218 ft | 142 kts | 289° |
| 2026-05-04 13:44 | 37.56337 | 24.29467 | 7065 ft | 141 kts | 289° |
| 2026-05-04 13:45 | 37.56556 | 24.28273 | 6914 ft | 139 kts | 289° |
| 2026-05-04 13:45 | 37.56769 | 24.27087 | 6764 ft | 138 kts | 289° |
| 2026-05-04 13:45 | 37.56983 | 24.25919 | 6619 ft | 136 kts | 289° |
| 2026-05-04 13:45 | 37.57196 | 24.24764 | 6467 ft | 135 kts | 289° |
| 2026-05-04 13:46 | 37.57405 | 24.23618 | 6308 ft | 134 kts | 289° |
| 2026-05-04 13:46 | 37.57613 | 24.22475 | 6149 ft | 134 kts | 289° |
| 2026-05-04 13:46 | 37.57822 | 24.21330 | 5993 ft | 135 kts | 289° |
| 2026-05-04 13:46 | 37.58037 | 24.20165 | 5842 ft | 138 kts | 289° |
| 2026-05-04 13:47 | 37.58264 | 24.18961 | 5699 ft | 145 kts | 289° |
| 2026-05-04 13:47 | 37.58510 | 24.17698 | 5558 ft | 151 kts | 289° |
| 2026-05-04 13:47 | 37.58769 | 24.16402 | 5417 ft | 154 kts | 289° |
| 2026-05-04 13:47 | 37.59031 | 24.15102 | 5274 ft | 156 kts | 289° |
| 2026-05-04 13:48 | 37.59302 | 24.13753 | 5124 ft | 157 kts | 289° |
| 2026-05-04 13:48 | 37.59571 | 24.12433 | 4977 ft | 158 kts | 289° |
| 2026-05-04 13:48 | 37.59847 | 24.11090 | 4826 ft | 159 kts | 289° |
| 2026-05-04 13:48 | 37.60123 | 24.09743 | 4672 ft | 159 kts | 289° |
| 2026-05-04 13:49 | 37.60427 | 24.08405 | 4519 ft | 159 kts | 292° |
| 2026-05-04 13:49 | 37.60819 | 24.07103 | 4362 ft | 159 kts | 296° |
| 2026-05-04 13:49 | 37.61393 | 24.05923 | 4199 ft | 158 kts | 311° |
| 2026-05-04 13:49 | 37.62118 | 24.04877 | 4050 ft | 158 kts | 314° |
| 2026-05-04 13:50 | 37.62884 | 24.03878 | 3897 ft | 158 kts | 318° |
| 2026-05-04 13:50 | 37.63720 | 24.02976 | 3747 ft | 158 kts | 322° |
| 2026-05-04 13:50 | 37.64577 | 24.02102 | 3597 ft | 159 kts | 322° |
| 2026-05-04 13:50 | 37.65437 | 24.01228 | 3448 ft | 159 kts | 322° |
| 2026-05-04 13:51 | 37.66304 | 24.00354 | 3300 ft | 161 kts | 322° |
| 2026-05-04 13:51 | 37.67190 | 23.99461 | 3150 ft | 164 kts | 322° |
| 2026-05-04 13:51 | 37.68083 | 23.98560 | 3007 ft | 163 kts | 322° |
| 2026-05-04 13:51 | 37.68956 | 23.97681 | 3001 ft | 159 kts | 322° |
| 2026-05-04 13:52 | 37.70661 | 23.96004 | 2998 ft | 154 kts | 326° |
| 2026-05-04 13:52 | 37.71560 | 23.95256 | 2940 ft | 155 kts | 327° |
| 2026-05-04 13:52 | 37.72459 | 23.94527 | 3013 ft | 152 kts | 328° |
| 2026-05-04 13:53 | 37.73354 | 23.93811 | 3008 ft | 153 kts | 328° |
| 2026-05-04 13:53 | 37.74238 | 23.93127 | 3074 ft | 147 kts | 330° |
| 2026-05-04 13:53 | 37.75133 | 23.92464 | 3020 ft | 150 kts | 330° |
| 2026-05-04 13:54 | 37.76974 | 23.91213 | 3027 ft | 152 kts | 335° |
| 2026-05-04 13:54 | 37.77962 | 23.90712 | 3015 ft | 155 kts | 340° |
| 2026-05-04 13:54 | 37.79995 | 23.89823 | 2999 ft | 155 kts | 341° |
| 2026-05-04 13:55 | 37.80985 | 23.89279 | 3007 ft | 154 kts | 331° |
| 2026-05-04 13:55 | 37.82790 | 23.87830 | 2979 ft | 155 kts | 328° |
| 2026-05-04 13:55 | 37.83688 | 23.87159 | 2777 ft | 141 kts | 335° |
| 2026-05-04 13:56 | 37.84567 | 23.86888 | 2583 ft | 128 kts | 1° |
| 2026-05-04 13:56 | 37.85355 | 23.87362 | 2320 ft | 129 kts | 43° |
| 2026-05-04 13:56 | 37.86604 | 23.88986 | 1966 ft | 127 kts | 31° |
| 2026-05-04 13:57 | 37.87322 | 23.89616 | 1843 ft | 126 kts | 29° |
| 2026-05-04 13:57 | 37.88038 | 23.90234 | 1680 ft | 124 kts | 30° |
| 2026-05-04 13:58 | 37.90086 | 23.92150 | 1039 ft | 115 kts | 32° |
| 2026-05-04 13:58 | 37.91141 | 23.93169 | 696 ft | 77 kts | 39° |
| 2026-05-04 13:58 | 37.91542 | 23.93543 | 550 ft | 68 kts | 39° |
| 2026-05-04 13:59 | 37.91908 | 23.93888 | 466 ft | 65 kts | 41° |
| 2026-05-04 13:59 | 37.92273 | 23.94249 | 386 ft | 69 kts | 37° |
| 2026-05-04 13:59 | 37.92980 | 23.94921 | 295 ft | 50 kts | 38° |
| 2026-05-04 14:00 | 37.93229 | 23.95159 | 291 ft | 41 kts | 37° |
| 2026-05-04 14:00 | 37.93684 | 23.95589 | 278 ft | 45 kts | 35° |
| 2026-05-04 14:00 | 37.93904 | 23.95714 | 280 ft | 28 kts | 11° |
| 2026-05-04 14:01 | 37.94041 | 23.95738 | 293 ft | 8 kts | 6° |
| 2026-05-04 14:01 | 37.94110 | 23.95747 | 294 ft | 13 kts | 7° |
| 2026-05-04 14:01 | 37.94341 | 23.95935 | 296 ft | 27 kts | 39° |
| 2026-05-04 14:02 | 37.94503 | 23.96089 | 297 ft | 27 kts | 37° |
| 2026-05-04 14:02 | 37.94601 | 23.96119 | 298 ft | 13 kts | 307° |
| 2026-05-04 14:02 | 37.94687 | 23.96119 | 300 ft | 17 kts | 38° |
| 2026-05-04 14:02 | 37.94792 | 23.96220 | 299 ft | 13 kts | 34° |
| 2026-05-04 14:03 | 37.94864 | 23.96290 | 300 ft | 16 kts | 36° |
| 2026-05-04 14:03 | 37.94932 | 23.96331 | 299 ft | 8 kts | 10° |
| 2026-05-04 14:03 | 37.94983 | 23.96306 | 300 ft | 9 kts | 305° |
| 2026-05-04 14:03 | 37.95018 | 23.96236 | 301 ft | 8 kts | 266° |
| 2026-05-04 14:04 | 37.95006 | 23.96189 | 302 ft | 2 kts | 30° |
| 2026-05-04 14:04 | 37.95008 | 23.96191 | 302 ft | 0 kts | 36° |